Time;durP1;ratioP1;P1;durP2;ratioP2;P2;SDS_P1;SDS_P2;PMS_P1;PMS_P2;Temp;Humidity;BMP_temperature;BMP_pressure;BME280_temperature;BME280_humidity;BME280_pressure;Samples;Min_cycle;Max_cycle;Signal;HPM_P1;HPM_P2
2022/08/09 00:01:17;;;;;;;1.65;1.00;;;18.60;71.10;;;;;;5136353;27;20027;-85
2022/08/09 00:03:43;;;;;;;2.00;1.30;;;18.50;71.30;;;;;;5129206;27;20020;-86
2022/08/09 00:06:08;;;;;;;1.92;1.25;;;18.40;71.50;;;;;;5137205;27;20021;-85
2022/08/09 00:08:34;;;;;;;3.17;1.33;;;18.30;71.70;;;;;;5135865;27;20103;-86
2022/08/09 00:11:00;;;;;;;1.45;1.10;;;18.20;72.00;;;;;;5138315;27;20164;-85
2022/08/09 00:13:26;;;;;;;1.75;1.17;;;18.20;72.50;;;;;;5118073;27;20031;-81
2022/08/09 00:15:52;;;;;;;1.90;1.00;;;18.10;72.70;;;;;;5134859;27;20076;-86
2022/08/09 00:18:18;;;;;;;2.65;1.38;;;18.00;72.80;;;;;;5133140;27;20020;-85
2022/08/09 00:20:44;;;;;;;1.58;1.05;;;18.00;73.20;;;;;;5135569;27;20022;-85
2022/08/09 00:23:10;;;;;;;3.22;1.25;;;17.90;73.50;;;;;;5135269;27;20027;-86
2022/08/09 00:25:35;;;;;;;1.77;1.00;;;17.90;74.00;;;;;;5136824;27;20385;-86
2022/08/09 00:28:02;;;;;;;2.40;1.10;;;17.80;74.00;;;;;;5137811;27;20079;-86
2022/08/09 00:30:28;;;;;;;1.55;0.90;;;17.80;74.30;;;;;;5137190;27;20109;-85
2022/08/09 00:32:53;;;;;;;2.55;1.30;;;17.70;74.60;;;;;;5130775;27;20046;-85
2022/08/09 00:35:19;;;;;;;3.35;1.30;;;17.70;74.60;;;;;;5136254;27;20133;-86
2022/08/09 00:37:45;;;;;;;1.70;1.27;;;17.70;74.50;;;;;;5137221;27;20584;-85
2022/08/09 00:40:11;;;;;;;2.28;1.42;;;17.70;75.10;;;;;;5136797;27;20054;-84
2022/08/09 00:42:37;;;;;;;3.15;1.60;;;17.60;75.00;;;;;;5133452;27;20056;-83
2022/08/09 00:45:04;;;;;;;4.25;1.83;;;17.60;75.20;;;;;;5136387;27;20088;-84
2022/08/09 00:47:30;;;;;;;1.77;1.35;;;17.60;75.50;;;;;;5111927;27;20034;-83
2022/08/09 00:49:57;;;;;;;2.47;1.23;;;17.60;75.60;;;;;;5136212;27;20034;-84
2022/08/09 00:52:25;;;;;;;2.13;1.30;;;17.50;75.70;;;;;;5135759;27;20140;-81
2022/08/09 00:54:52;;;;;;;2.20;1.20;;;17.60;75.80;;;;;;5137587;27;20035;-86
2022/08/09 00:57:18;;;;;;;1.70;1.40;;;17.60;75.90;;;;;;5135181;27;20035;-87
2022/08/09 00:59:45;;;;;;;2.83;1.40;;;17.50;75.90;;;;;;5136327;27;20053;-86
2022/08/09 01:02:11;;;;;;;1.88;1.67;;;17.50;76.10;;;;;;5132106;27;20023;-87
2022/08/09 01:04:54;;;;;;;3.63;1.83;;;17.50;76.40;;;;;;5136505;27;20470;-86
2022/08/09 01:07:34;;;;;;;3.05;1.88;;;17.50;76.90;;;;;;5137002;27;20024;-87
2022/08/09 01:10:11;;;;;;;5.25;1.73;;;17.40;77.20;;;;;;5137236;27;20036;-85
2022/08/09 01:12:39;;;;;;;3.05;1.90;;;17.40;77.70;;;;;;5135269;27;20106;-86
2022/08/09 01:15:08;;;;;;;2.80;1.60;;;17.40;77.20;;;;;;5139822;27;20075;-87
2022/08/09 01:17:42;;;;;;;4.10;1.90;;;17.40;77.20;;;;;;5134932;27;20034;-83
2022/08/09 01:20:16;;;;;;;3.17;1.45;;;17.40;77.40;;;;;;5138379;27;20890;-85
2022/08/09 01:22:59;;;;;;;1.92;1.40;;;17.40;77.30;;;;;;5127599;27;20081;-87
2022/08/09 01:26:02;;;;;;;8.13;1.50;;;17.40;77.80;;;;;;5138654;27;20555;-81
2022/08/09 01:28:30;;;;;;;3.67;1.80;;;17.30;77.90;;;;;;5138750;27;20078;-86
2022/08/09 01:30:59;;;;;;;1.45;1.10;;;17.30;78.40;;;;;;5137489;27;20027;-87
2022/08/09 01:33:28;;;;;;;2.08;1.58;;;17.20;78.70;;;;;;5136433;27;20034;-81
2022/08/09 01:36:03;;;;;;;3.05;1.83;;;17.10;79.10;;;;;;5134267;27;20086;-83
2022/08/09 01:38:37;;;;;;;5.70;1.83;;;17.00;79.50;;;;;;5132255;27;20135;-85
2022/08/09 01:41:31;;;;;;;2.58;1.52;;;17.00;80.10;;;;;;5119886;27;20439;-84
2022/08/09 01:44:00;;;;;;;4.00;1.60;;;16.90;80.40;;;;;;5134822;27;20266;-85
2022/08/09 01:46:32;;;;;;;1.95;1.40;;;16.90;80.60;;;;;;5132392;27;20026;-81
2022/08/09 01:49:01;;;;;;;4.68;1.67;;;16.80;80.90;;;;;;5118341;27;20484;-86
2022/08/09 01:51:28;;;;;;;3.35;1.73;;;16.80;81.30;;;;;;5125459;27;20063;-82
2022/08/09 01:53:56;;;;;;;2.30;1.42;;;16.80;81.40;;;;;;5128062;27;20027;-87
2022/08/09 01:56:23;;;;;;;5.25;1.50;;;16.80;81.60;;;;;;5118418;28;20422;-84
2022/08/09 01:58:51;;;;;;;2.15;1.60;;;16.70;81.90;;;;;;5110194;27;20118;-85
2022/08/09 02:01:18;;;;;;;3.83;1.52;;;16.70;82.40;;;;;;5133593;27;20080;-86
2022/08/09 02:03:46;;;;;;;4.65;1.80;;;16.70;82.40;;;;;;5128481;28;20030;-85
2022/08/09 02:06:13;;;;;;;2.78;1.40;;;16.60;82.50;;;;;;5134857;27;20479;-85
2022/08/09 02:08:41;;;;;;;2.22;1.50;;;16.70;82.80;;;;;;5131660;27;20031;-86
2022/08/09 02:11:08;;;;;;;1.52;1.33;;;16.70;82.70;;;;;;5137279;27;20037;-85
2022/08/09 02:13:36;;;;;;;4.57;1.90;;;16.60;82.70;;;;;;5139148;27;20110;-80
2022/08/09 02:16:07;;;;;;;12.38;2.17;;;16.70;82.80;;;;;;5141996;27;20011;-85
2022/08/09 02:18:34;;;;;;;3.92;1.50;;;16.70;82.60;;;;;;5105544;27;20487;-85
2022/08/09 02:21:07;;;;;;;1.83;1.40;;;16.70;82.70;;;;;;5136280;27;20031;-85
2022/08/09 02:23:40;;;;;;;5.20;1.25;;;16.70;82.80;;;;;;5133429;27;20081;-84
2022/08/09 02:26:08;;;;;;;1.70;1.40;;;16.70;83.20;;;;;;5136801;27;20092;-86
2022/08/09 02:28:42;;;;;;;2.60;1.70;;;16.60;83.40;;;;;;5132614;27;20024;-85
2022/08/09 02:31:17;;;;;;;2.25;1.40;;;16.50;83.80;;;;;;5137230;27;20039;-86
2022/08/09 02:33:46;;;;;;;1.85;1.65;;;16.50;84.20;;;;;;5115361;27;20507;-86
2022/08/09 02:36:18;;;;;;;1.65;1.35;;;16.40;84.70;;;;;;5136095;27;20034;-88
2022/08/09 02:38:53;;;;;;;3.08;1.38;;;16.40;85.20;;;;;;5138725;27;20042;-84
2022/08/09 02:41:27;;;;;;;2.08;1.73;;;16.40;85.60;;;;;;5138099;27;20111;-85
2022/08/09 02:43:56;;;;;;;1.38;1.27;;;16.30;86.10;;;;;;5137483;27;20020;-85
2022/08/09 02:46:27;;;;;;;3.17;1.70;;;;;;;;;;5117239;28;20019;-86
2022/08/09 02:48:56;;;;;;;2.42;1.60;;;;;;;;;;5132778;27;20045;-84
2022/08/09 02:51:23;;;;;;;2.72;1.73;;;16.10;99.90;;;;;;5137596;27;20106;-86
2022/08/09 02:53:54;;;;;;;3.55;1.45;;;;;;;;;;5132668;27;20096;-84
2022/08/09 02:56:23;;;;;;;1.88;1.17;;;;;;;;;;5126575;27;20023;-85
2022/08/09 02:58:53;;;;;;;2.42;1.70;;;;;;;;;;5136796;27;20118;-85
2022/08/09 03:01:23;;;;;;;3.35;1.73;;;;;;;;;;5127215;27;20023;-84
2022/08/09 03:03:50;;;;;;;2.17;1.70;;;;;;;;;;5132581;27;20035;-83
2022/08/09 03:06:22;;;;;;;2.25;1.35;;;;;;;;;;5137934;27;20512;-84
2022/08/09 03:08:51;;;;;;;3.60;1.65;;;;;;;;;;5119266;27;20794;-85
2022/08/09 03:11:19;;;;;;;4.27;2.17;;;;;;;;;;5134906;27;20484;-84
2022/08/09 03:13:46;;;;;;;2.50;1.70;;;;;;;;;;5137002;27;20124;-83
2022/08/09 03:16:13;;;;;;;2.10;1.80;;;;;;;;;;5137724;27;20094;-86
2022/08/09 03:18:40;;;;;;;4.40;1.85;;;;;;;;;;5133583;27;20012;-86
2022/08/09 03:21:07;;;;;;;4.22;1.90;;;;;;;;;;5135337;27;20023;-87
2022/08/09 03:23:33;;;;;;;4.45;2.00;;;;;;;;;;5134720;27;20019;-87
2022/08/09 03:25:59;;;;;;;2.55;1.80;;;;;;;;;;5138663;27;20077;-85
2022/08/09 03:28:26;;;;;;;10.25;2.20;;;;;;;;;;5135816;27;20511;-81
2022/08/09 03:30:53;;;;;;;3.40;1.65;;;;;;;;;;5137565;27;20031;-86
2022/08/09 03:33:20;;;;;;;2.83;1.45;;;;;;;;;;5118249;27;20051;-87
2022/08/09 03:35:47;;;;;;;4.70;1.98;;;;;;;;;;5136050;27;20079;-85
2022/08/09 03:38:13;;;;;;;1.98;1.60;;;;;;;;;;5139324;27;20026;-85
2022/08/09 03:40:39;;;;;;;3.63;1.90;;;;;;;;;;5121367;27;20063;-85
2022/08/09 03:43:05;;;;;;;3.15;1.55;;;;;;;;;;5133539;27;20016;-85
2022/08/09 03:45:31;;;;;;;2.58;1.40;;;;;;;;;;5137007;27;20034;-85
2022/08/09 03:47:57;;;;;;;1.73;1.40;;;;;;;;;;5138831;27;20035;-86
2022/08/09 03:50:24;;;;;;;5.38;1.70;;;;;;;;;;5136152;27;20035;-86
2022/08/09 03:52:50;;;;;;;2.63;1.70;;;;;;;;;;5139813;27;20148;-85
2022/08/09 03:55:18;;;;;;;2.78;1.70;;;;;;;;;;5139253;27;20022;-86
2022/08/09 03:57:49;;;;;;;3.33;1.98;;;;;;;;;;5141602;27;20023;-86
2022/08/09 04:00:15;;;;;;;2.15;1.60;;;;;;;;;;5139283;27;20022;-86
2022/08/09 04:02:42;;;;;;;2.15;1.70;;;;;;;;;;5134326;27;20098;-86
2022/08/09 04:05:09;;;;;;;2.20;1.50;;;;;;;;;;5139347;27;20026;-84
2022/08/09 04:07:35;;;;;;;2.60;1.27;;;;;;;;;;5132100;27;20030;-84
2022/08/09 04:10:01;;;;;;;3.28;1.63;;;;;;;;;;5134902;27;20460;-83
2022/08/09 04:12:42;;;;;;;1.65;1.50;;;;;;;;;;5112857;28;20380;-78
2022/08/09 04:15:08;;;;;;;;;;;;;;;;;;5132536;27;20027;-86
2022/08/09 04:17:34;;;;;;;1.90;1.42;;;;;;;;;;5135242;27;19910;-85
2022/08/09 04:20:00;;;;;;;2.60;1.67;;;;;;;;;;5141021;27;20026;-87
2022/08/09 04:22:26;;;;;;;2.00;1.38;;;;;;;;;;5141952;27;20559;-87
2022/08/09 04:24:53;;;;;;;2.95;1.83;;;;;;;;;;5136440;27;20030;-87
2022/08/09 04:27:19;;;;;;;2.85;1.60;;;;;;;;;;5141633;27;20506;-87
2022/08/09 04:29:45;;;;;;;1.55;1.30;;;;;;;;;;5140720;27;20106;-89
2022/08/09 04:32:11;;;;;;;1.73;1.58;;;;;;;;;;5138247;27;20019;-86
2022/08/09 04:34:37;;;;;;;2.53;1.67;;;;;;;;;;5136171;27;20011;-88
2022/08/09 04:37:03;;;;;;;4.15;1.70;;;;;;;;;;5135796;27;20023;-83
2022/08/09 04:39:29;;;;;;;2.58;1.55;;;;;;;;;;5137838;27;20031;-81
2022/08/09 04:41:55;;;;;;;3.60;1.65;;;;;;;;;;5134980;27;20026;-85
2022/08/09 04:44:21;;;;;;;3.65;1.70;;;;;;;;;;5116753;28;20023;-87
2022/08/09 04:46:47;;;;;;;3.58;1.80;;;;;;;;;;5133246;27;20024;-86
2022/08/09 04:49:13;;;;;;;6.43;1.83;;;;;;;;;;5133319;27;20028;-87
2022/08/09 04:51:39;;;;;;;4.63;2.00;;;;;;;;;;5138000;27;20102;-86
2022/08/09 04:54:05;;;;;;;2.40;1.65;;;;;;;;;;5116211;27;20357;-86
2022/08/09 04:56:31;;;;;;;2.28;1.70;;;;;;;;;;5140445;27;20031;-80
2022/08/09 04:58:57;;;;;;;2.83;1.80;;;;;;;;;;5136777;27;20027;-86
2022/08/09 05:01:24;;;;;;;1.92;1.63;;;;;;;;;;5133024;27;20019;-83
2022/08/09 05:03:50;;;;;;;2.17;1.77;;;;;;;;;;5137264;27;20058;-87
2022/08/09 05:06:16;;;;;;;5.53;2.00;;;;;;;;;;5133879;27;20015;-87
2022/08/09 05:08:42;;;;;;;3.10;2.10;;;;;;;;;;5140242;27;20379;-88
2022/08/09 05:11:08;;;;;;;3.70;1.90;;;;;;;;;;5141846;27;20031;-86
2022/08/09 05:13:35;;;;;;;7.07;2.00;;;;;;;;;;5135422;27;20032;-87
2022/08/09 05:16:01;;;;;;;2.45;1.80;;;;;;;;;;5136424;27;20023;-84
2022/08/09 05:18:32;;;;;;;3.67;1.73;;;;;;;;;;5133116;27;20057;-86
2022/08/09 05:20:58;;;;;;;3.08;1.80;;;;;;;;;;5138608;27;20030;-85
2022/08/09 05:23:24;;;;;;;2.72;2.10;;;;;;;;;;5139085;27;20372;-87
2022/08/09 05:25:50;;;;;;;3.35;2.20;;;;;;;;;;5138876;27;20039;-87
2022/08/09 05:28:17;;;;;;;4.32;2.47;;;;;;;;;;5135098;27;20086;-86
2022/08/09 05:30:43;;;;;;;4.47;1.90;;;;;;;;;;5135581;27;20023;-85
2022/08/09 05:33:09;;;;;;;3.10;2.30;;;;;;;;;;5131649;27;20027;-86
2022/08/09 05:35:35;;;;;;;4.53;2.22;;;;;;;;;;5137760;27;20030;-87
2022/08/09 05:38:01;;;;;;;5.88;2.78;;;;;;;;;;5139331;27;20031;-87
2022/08/09 05:40:27;;;;;;;4.10;2.70;;;;;;;;;;5136233;27;20098;-87
2022/08/09 05:42:54;;;;;;;3.30;2.53;;;;;;;;;;5132120;27;20062;-85
2022/08/09 05:45:20;;;;;;;4.93;2.40;;;;;;;;;;5134454;27;20106;-85
2022/08/09 05:47:46;;;;;;;5.10;2.95;;;;;;;;;;5131317;27;20098;-85
2022/08/09 05:50:12;;;;;;;6.13;2.90;;;;;;;;;;5130481;27;20110;-84
2022/08/09 05:52:38;;;;;;;5.78;2.85;;;;;;;;;;5125567;27;20051;-84
2022/08/09 05:55:06;;;;;;;6.10;2.50;;;;;;;;;;5132760;27;20061;-85
2022/08/09 05:57:32;;;;;;;5.25;2.65;;;;;;;;;;5131790;27;20019;-84
2022/08/09 05:59:58;;;;;;;9.15;3.33;;;;;;;;;;5135103;27;20057;-90
2022/08/09 06:02:24;;;;;;;6.25;2.75;;;;;;;;;;5134850;27;20031;-88
2022/08/09 06:04:50;;;;;;;4.88;3.20;;;;;;;;;;5137800;28;20102;-93
2022/08/09 06:07:16;;;;;;;7.93;3.05;;;;;;;;;;5130636;28;20023;-82
2022/08/09 06:09:42;;;;;;;6.25;3.15;;;;;;;;;;5132777;28;20384;-85
2022/08/09 06:12:08;;;;;;;9.13;3.13;;;;;;;;;;5125198;28;20072;-84
2022/08/09 06:14:34;;;;;;;7.63;3.78;;;;;;;;;;5130147;28;20024;-79
2022/08/09 06:17:00;;;;;;;11.82;5.43;;;;;;;;;;5122028;28;20038;-84
2022/08/09 06:19:26;;;;;;;21.02;5.90;;;;;;;;;;5128504;28;20019;-86
2022/08/09 06:21:52;;;;;;;8.68;4.32;;;;;;;;;;5130399;28;20436;-82
2022/08/09 06:24:18;;;;;;;12.65;4.78;;;;;;;;;;5141808;28;20011;-86
2022/08/09 06:26:44;;;;;;;11.68;4.45;;;;;;;;;;5131456;28;20126;-81
2022/08/09 06:29:10;;;;;;;14.77;5.93;;;;;;;;;;5134789;28;20035;-84
2022/08/09 06:31:37;;;;;;;13.13;5.10;;;;;;;;;;5131239;28;20031;-85
2022/08/09 06:34:03;;;;;;;8.52;4.32;;;;;;;;;;5131410;28;20026;-85
2022/08/09 06:36:29;;;;;;;7.13;4.50;;;;;;;;;;5131098;28;20365;-86
2022/08/09 06:38:56;;;;;;;9.18;4.32;;;;;;;;;;5129503;28;20027;-84
2022/08/09 06:41:23;;;;;;;9.73;5.00;;;;;;;;;;5142079;28;20030;-86
2022/08/09 06:43:49;;;;;;;7.72;4.10;;;;;;;;;;5137611;28;20027;-85
2022/08/09 06:46:15;;;;;;;10.00;4.50;;;;;;;;;;5127674;28;20460;-85
2022/08/09 06:48:41;;;;;;;8.95;4.55;;;;;;;;;;5130146;28;20023;-86
2022/08/09 06:51:08;;;;;;;10.27;4.38;;;;;;;;;;5138580;28;20069;-86
2022/08/09 06:53:34;;;;;;;7.75;4.10;;;;;;;;;;5131670;27;20470;-85
2022/08/09 06:56:01;;;;;;;7.38;4.05;;;;;;;;;;5141106;27;20034;-85
2022/08/09 06:58:28;;;;;;;11.13;4.40;;;;;;;;;;5139787;27;20498;-85
2022/08/09 07:00:54;;;;;;;9.18;3.85;;;;;;;;;;5134644;27;20326;-78
2022/08/09 07:03:21;;;;;;;6.82;3.80;;;;;;;;;;5124695;27;20035;-84
2022/08/09 07:05:49;;;;;;;9.43;3.88;;;;;;;;;;5126671;27;20022;-84
2022/08/09 07:08:15;;;;;;;10.60;3.70;;;;;;;;;;5138048;27;20024;-85
2022/08/09 07:10:41;;;;;;;7.53;3.85;;;21.10;99.90;;;;;;5140666;27;20151;-85
2022/08/09 07:13:07;;;;;;;10.98;3.67;;;21.30;83.00;;;;;;5138400;27;20043;-86
2022/08/09 07:15:33;;;;;;;6.10;4.00;;;21.40;82.30;;;;;;5135562;27;20375;-76
2022/08/09 07:17:58;;;;;;;7.88;4.05;;;21.50;82.00;;;;;;5141103;27;20023;-86
2022/08/09 07:20:27;;;;;;;7.65;3.50;;;21.60;81.50;;;;;;5136506;27;20035;-84
2022/08/09 07:22:53;;;;;;;5.15;3.25;;;21.60;80.90;;;;;;5126979;27;20030;-86
2022/08/09 07:25:19;;;;;;;10.77;3.83;;;21.60;81.40;;;;;;5134580;27;20031;-87
2022/08/09 07:27:45;;;;;;;7.25;3.25;;;21.70;81.20;;;;;;5136867;27;20084;-83
2022/08/09 07:30:12;;;;;;;4.68;3.63;;;21.80;80.70;;;;;;5134767;27;20464;-87
2022/08/09 07:32:39;;;;;;;8.13;3.40;;;22.00;80.60;;;;;;5135360;27;20085;-86
2022/08/09 07:35:08;;;;;;;13.15;3.58;;;22.10;80.20;;;;;;5137547;27;20035;-88
2022/08/09 07:37:34;;;;;;;6.05;2.90;;;22.20;79.70;;;;;;5138143;27;20034;-80
2022/08/09 07:40:00;;;;;;;9.15;3.25;;;22.30;79.70;;;;;;5131379;27;20034;-87
2022/08/09 07:42:26;;;;;;;5.72;2.97;;;22.40;80.20;;;;;;5135317;27;20027;-86
2022/08/09 07:44:51;;;;;;;6.20;3.13;;;22.60;79.00;;;;;;5131234;27;20027;-87
2022/08/09 07:47:18;;;;;;;6.07;2.72;;;22.60;78.80;;;;;;5135601;27;20027;-86
2022/08/09 07:49:44;;;;;;;7.63;2.67;;;22.80;78.60;;;;;;5131809;27;20031;-85
2022/08/09 07:52:09;;;;;;;8.75;3.00;;;22.90;78.50;;;;;;5141115;27;20034;-88
2022/08/09 07:54:35;;;;;;;3.45;2.30;;;23.00;77.80;;;;;;5131825;27;20023;-78
2022/08/09 07:57:01;;;;;;;7.18;2.92;;;23.00;78.20;;;;;;5140776;27;20031;-84
2022/08/09 07:59:26;;;;;;;4.90;2.65;;;23.10;77.40;;;;;;5138414;27;20456;-89
2022/08/09 08:01:54;;;;;;;6.70;2.50;;;23.00;78.00;;;;;;5135909;27;20089;-87
2022/08/09 08:04:21;;;;;;;7.35;2.30;;;23.20;77.60;;;;;;5136520;27;20037;-88
2022/08/09 08:06:46;;;;;;;6.15;3.03;;;23.30;77.40;;;;;;5140650;27;20041;-84
2022/08/09 08:09:12;;;;;;;4.35;2.70;;;23.50;76.40;;;;;;5138913;27;20031;-87
2022/08/09 08:11:38;;;;;;;3.47;1.88;;;23.50;76.50;;;;;;5138876;27;20083;-78
2022/08/09 08:14:04;;;;;;;7.22;2.30;;;23.50;76.50;;;;;;5132342;27;20084;-88
2022/08/09 08:16:30;;;;;;;3.60;2.28;;;23.60;76.10;;;;;;5141517;27;20027;-86
2022/08/09 08:18:56;;;;;;;7.70;2.28;;;23.80;75.70;;;;;;5137657;27;20023;-85
2022/08/09 08:21:22;;;;;;;4.85;2.40;;;23.90;75.80;;;;;;5132658;27;20038;-86
2022/08/09 08:23:48;;;;;;;4.15;1.95;;;24.00;75.10;;;;;;5129706;27;20034;-85
2022/08/09 08:26:14;;;;;;;2.63;1.90;;;24.00;75.10;;;;;;5136383;27;20403;-85
2022/08/09 08:28:39;;;;;;;3.72;2.05;;;24.10;75.20;;;;;;5139818;27;20380;-79
2022/08/09 08:31:05;;;;;;;10.32;1.95;;;24.20;74.50;;;;;;5137654;27;20060;-87
2022/08/09 08:33:31;;;;;;;6.15;1.92;;;24.30;74.30;;;;;;5139927;27;20027;-86
2022/08/09 08:35:57;;;;;;;3.15;1.67;;;24.40;74.00;;;;;;5139408;27;20046;-85
2022/08/09 08:38:24;;;;;;;4.32;2.47;;;24.50;74.20;;;;;;5132419;27;20153;-85
2022/08/09 08:40:54;;;;;;;4.07;2.25;;;24.60;73.80;;;;;;5141093;27;20041;-86
2022/08/09 08:43:20;;;;;;;5.40;1.90;;;24.70;73.30;;;;;;5138214;27;20027;-85
2022/08/09 08:45:50;;;;;;;5.15;1.92;;;24.80;72.60;;;;;;5141283;27;20027;-84
2022/08/09 08:48:17;;;;;;;10.02;2.08;;;25.10;71.80;;;;;;5134042;27;20049;-84
2022/08/09 08:50:44;;;;;;;7.25;2.00;;;25.10;71.90;;;;;;5138559;27;20449;-88
2022/08/09 08:53:11;;;;;;;4.30;2.33;;;25.30;70.80;;;;;;5138416;27;20058;-86
2022/08/09 08:55:37;;;;;;;3.33;2.00;;;25.30;71.20;;;;;;5135965;27;20038;-79
2022/08/09 08:58:03;;;;;;;2.70;1.90;;;25.40;71.20;;;;;;5129756;27;20028;-82
2022/08/09 09:00:32;;;;;;;2.83;1.80;;;25.60;70.90;;;;;;5143486;27;20034;-88
2022/08/09 09:02:59;;;;;;;2.92;1.90;;;25.60;70.70;;;;;;5149314;27;20027;-88
2022/08/09 09:05:25;;;;;;;7.22;2.08;;;25.70;69.50;;;;;;5141740;27;20034;-90
2022/08/09 09:07:52;;;;;;;1.98;1.52;;;25.90;69.70;;;;;;5142552;27;20027;-87
2022/08/09 09:10:19;;;;;;;10.00;1.70;;;26.00;69.50;;;;;;5149959;27;20038;-86
2022/08/09 09:12:47;;;;;;;2.83;1.55;;;26.00;69.40;;;;;;5153190;27;20019;-76
2022/08/09 09:15:14;;;;;;;2.25;1.95;;;26.10;68.80;;;;;;5156270;27;20015;-86
2022/08/09 09:17:40;;;;;;;3.25;1.70;;;26.30;68.50;;;;;;5154856;27;20027;-74
2022/08/09 09:20:12;;;;;;;8.40;1.75;;;26.40;68.10;;;;;;5150826;27;20042;-89
2022/08/09 09:22:53;;;;;;;5.18;1.67;;;26.60;67.30;;;;;;5149281;27;20112;-77
2022/08/09 09:25:37;;;;;;;6.75;1.83;;;26.60;66.40;;;;;;5155766;27;20008;-89
2022/08/09 09:28:05;;;;;;;5.53;2.13;;;26.70;66.30;;;;;;5152396;27;20034;-90
2022/08/09 09:30:31;;;;;;;4.82;1.52;;;26.90;66.20;;;;;;5147342;27;20035;-91
2022/08/09 09:33:01;;;;;;;2.15;1.70;;;27.00;65.70;;;;;;5140589;27;20027;-91
2022/08/09 09:35:27;;;;;;;5.28;1.77;;;27.20;64.20;;;;;;5143029;27;20046;-89
2022/08/09 09:37:53;;;;;;;5.07;1.95;;;27.20;63.20;;;;;;5140194;27;20476;-89
2022/08/09 09:40:19;;;;;;;3.70;1.80;;;27.20;61.30;;;;;;5137314;27;20034;-90
2022/08/09 09:42:55;;;;;;;4.65;1.90;;;27.20;61.30;;;;;;5138910;27;20058;-88
2022/08/09 09:45:22;;;;;;;6.50;1.67;;;27.20;61.20;;;;;;5138182;27;20062;-91
2022/08/09 09:47:48;;;;;;;8.25;2.17;;;27.20;61.30;;;;;;5141366;27;20035;-91
2022/08/09 09:50:21;;;;;;;5.57;2.22;;;27.20;61.90;;;;;;5140774;27;20016;-91
2022/08/09 09:52:53;;;;;;;4.03;1.50;;;27.30;61.90;;;;;;5129073;27;20058;-91
2022/08/09 09:55:19;;;;;;;3.30;1.42;;;27.30;61.50;;;;;;5141034;27;20042;-91
2022/08/09 09:58:17;;;;;;;5.38;1.70;;;27.40;62.70;;;;;;5121373;28;20059;-86
2022/08/09 10:00:48;;;;;;;5.00;1.90;;;27.50;62.10;;;;;;5096284;28;20059;-76
2022/08/09 10:03:14;;;;;;;3.58;1.75;;;27.50;61.70;;;;;;5143517;27;20020;-89
2022/08/09 10:05:59;;;;;;;4.20;1.48;;;27.70;62.10;;;;;;5147305;28;20014;-78
2022/08/09 10:08:24;;;;;;;4.60;1.63;;;27.70;61.70;;;;;;5142990;28;20048;-88
2022/08/09 10:10:50;;;;;;;3.20;1.42;;;27.80;61.60;;;;;;5147157;28;20031;-91
2022/08/09 10:13:17;;;;;;;2.67;1.42;;;27.80;61.10;;;;;;5148315;28;20015;-89
2022/08/09 10:15:50;;;;;;;2.40;1.65;;;28.00;60.80;;;;;;5153621;28;20030;-77
2022/08/09 10:18:16;;;;;;;4.75;1.65;;;28.10;59.70;;;;;;5147572;28;20094;-91
2022/08/09 10:20:43;;;;;;;1.92;1.27;;;28.10;59.70;;;;;;5148297;28;20042;-82
2022/08/09 10:23:17;;;;;;;1.67;1.58;;;28.20;59.40;;;;;;5153900;28;20011;-89
2022/08/09 10:25:48;;;;;;;3.40;1.60;;;28.30;58.40;;;;;;5147841;28;20108;-82
2022/08/09 10:28:14;;;;;;;3.42;2.05;;;28.30;58.50;;;;;;5122613;28;20445;-81
2022/08/09 10:30:40;;;;;;;2.05;1.45;;;28.40;58.40;;;;;;5126819;27;20055;-78
2022/08/09 10:33:07;;;;;;;3.15;1.33;;;28.40;58.10;;;;;;5128535;27;20448;-78
2022/08/09 10:35:33;;;;;;;1.67;1.58;;;28.50;58.10;;;;;;5131041;27;20015;-80
2022/08/09 10:38:00;;;;;;;3.08;1.45;;;28.60;58.50;;;;;;5136531;27;20516;-86
2022/08/09 10:40:27;;;;;;;3.95;1.33;;;28.70;57.50;;;;;;5145314;27;20046;-87
2022/08/09 10:42:53;;;;;;;2.40;1.38;;;28.80;56.90;;;;;;5146273;27;20049;-89
2022/08/09 10:45:20;;;;;;;3.47;1.35;;;28.90;56.90;;;;;;5140567;27;20035;-85
2022/08/09 10:47:59;;;;;;;3.42;1.60;;;28.90;56.90;;;;;;5128659;27;20023;-80
2022/08/09 10:51:05;;;;;;;3.53;1.85;;;29.00;56.80;;;;;;5149184;27;20440;-86
2022/08/09 10:53:55;;;;;;;1.73;1.55;;;29.10;56.30;;;;;;5144288;27;20039;-86
2022/08/09 10:56:22;;;;;;;4.35;1.85;;;29.20;55.80;;;;;;5137070;27;20023;-88
2022/08/09 10:58:49;;;;;;;3.53;1.48;;;29.10;55.90;;;;;;5153600;27;20042;-82
2022/08/09 11:01:30;;;;;;;1.60;1.50;;;29.10;55.90;;;;;;5144210;27;20023;-90
2022/08/09 11:04:11;;;;;;;2.13;1.33;;;29.10;55.20;;;;;;5145581;27;20034;-87
2022/08/09 11:06:37;;;;;;;2.45;1.30;;;29.20;54.80;;;;;;5140954;27;20054;-87
2022/08/09 11:09:05;;;;;;;2.28;1.58;;;29.30;55.20;;;;;;5148804;27;20137;-86
2022/08/09 11:11:53;;;;;;;2.08;1.30;;;29.30;52.70;;;;;;5147815;27;20031;-85
2022/08/09 11:14:40;;;;;;;2.88;1.30;;;29.20;52.60;;;;;;5143225;27;20030;-88
2022/08/09 11:17:12;;;;;;;3.20;1.73;;;29.10;52.60;;;;;;5146309;27;20046;-89
2022/08/09 11:19:50;;;;;;;2.63;1.40;;;29.20;53.10;;;;;;5140109;27;20047;-77
2022/08/09 11:22:16;;;;;;;4.10;1.60;;;29.20;52.50;;;;;;5147375;27;20034;-91
2022/08/09 11:25:06;;;;;;;2.45;1.42;;;29.30;52.70;;;;;;5141374;27;20031;-81
2022/08/09 11:27:35;;;;;;;2.63;1.52;;;29.40;51.70;;;;;;5147424;27;20075;-87
2022/08/09 11:30:02;;;;;;;2.22;1.40;;;29.40;53.00;;;;;;5124999;27;20043;-90
2022/08/09 11:32:46;;;;;;;4.72;1.30;;;29.30;52.50;;;;;;5147613;27;20094;-89
2022/08/09 11:35:26;;;;;;;3.22;1.30;;;29.30;52.70;;;;;;5147499;27;20045;-83
2022/08/09 11:37:57;;;;;;;9.73;2.03;;;29.30;52.20;;;;;;5143599;27;20042;-89
2022/08/09 11:40:30;;;;;;;20.42;1.77;;;29.50;52.80;;;;;;5142019;27;20029;-90
2022/08/09 11:43:06;;;;;;;4.85;1.45;;;29.60;52.10;;;;;;5140058;27;20027;-89
2022/08/09 11:45:39;;;;;;;2.90;1.50;;;29.60;52.30;;;;;;5124133;27;20535;-90
2022/08/09 11:48:16;;;;;;;12.50;1.65;;;29.80;51.90;;;;;;5124725;27;20031;-90
2022/08/09 11:51:03;;;;;;;3.22;1.60;;;30.00;51.10;;;;;;5141827;27;20039;-78
2022/08/09 11:53:40;;;;;;;3.30;1.25;;;30.20;50.80;;;;;;5124696;27;20026;-88
2022/08/09 11:56:25;;;;;;;2.95;1.50;;;30.30;50.60;;;;;;5140432;27;20023;-89
2022/08/09 11:59:04;;;;;;;1.65;1.48;;;30.40;50.80;;;;;;5104299;27;20050;-90
2022/08/09 12:01:57;;;;;;;1.50;1.40;;;30.30;50.70;;;;;;5109369;27;20031;-87
2022/08/09 12:04:30;;;;;;;2.03;1.40;;;30.00;51.40;;;;;;5121672;27;20024;-86
2022/08/09 12:07:00;;;;;;;3.08;1.30;;;30.00;51.70;;;;;;5122262;27;20035;-89
2022/08/09 12:09:29;;;;;;;2.05;1.50;;;30.00;51.70;;;;;;5142539;27;20046;-87
2022/08/09 12:14:56;;;;;;;4.45;1.35;;;30.30;51.50;;;;;;5126235;27;20449;-90
2022/08/09 12:17:30;;;;;;;4.35;1.50;;;30.60;51.00;;;;;;5140768;27;20054;-90
2022/08/09 12:19:58;;;;;;;2.38;1.60;;;30.70;50.50;;;;;;5139814;27;20059;-89
2022/08/09 12:22:27;;;;;;;9.07;1.90;;;30.70;50.30;;;;;;5117169;27;20019;-84
2022/08/09 12:25:16;;;;;;;3.70;1.55;;;30.80;50.30;;;;;;5140956;27;20034;-87
2022/08/09 12:28:07;;;;;;;3.47;1.40;;;30.90;50.40;;;;;;5122178;28;20438;-82
2022/08/09 12:30:39;;;;;;;2.10;1.60;;;31.00;50.00;;;;;;5116891;28;20023;-91
2022/08/09 12:33:26;;;;;;;4.50;1.67;;;31.30;50.60;;;;;;5122146;28;20028;-88
2022/08/09 12:36:05;;;;;;;3.38;1.63;;;31.40;51.00;;;;;;5111120;28;20036;-89
2022/08/09 12:38:34;;;;;;;6.47;1.67;;;31.70;50.50;;;;;;5119880;28;20060;-88
2022/08/09 12:41:00;;;;;;;1.90;1.50;;;31.80;50.20;;;;;;5112951;28;20465;-87
2022/08/09 12:43:37;;;;;;;1.88;1.20;;;31.60;49.40;;;;;;5115130;28;20050;-87
2022/08/09 12:46:07;;;;;;;1.60;1.50;;;31.60;49.70;;;;;;5119543;28;20024;-89
2022/08/09 12:48:33;;;;;;;3.92;1.70;;;31.60;49.80;;;;;;5107983;28;20054;-89
2022/08/09 12:51:03;;;;;;;1.25;1.23;;;31.70;49.20;;;;;;5100462;28;20049;-88
2022/08/09 12:53:44;;;;;;;1.92;1.40;;;31.80;49.00;;;;;;5095699;28;20052;-89
2022/08/09 12:56:13;;;;;;;3.58;1.15;;;31.90;47.50;;;;;;5101542;28;20027;-88
2022/08/09 12:58:41;;;;;;;4.63;1.90;;;31.70;47.40;;;;;;5120623;28;20461;-79
2022/08/09 13:01:24;;;;;;;1.83;1.15;;;31.60;48.00;;;;;;5118341;28;20024;-87
2022/08/09 13:04:00;;;;;;;3.45;1.60;;;31.70;47.90;;;;;;5111723;28;20107;-86
2022/08/09 13:06:32;;;;;;;3.03;1.42;;;31.50;47.10;;;;;;5121993;27;20023;-88
2022/08/09 13:09:08;;;;;;;5.82;1.52;;;31.40;48.20;;;;;;5105746;28;20019;-87
2022/08/09 13:11:37;;;;;;;4.05;1.40;;;31.20;48.30;;;;;;5120377;28;20031;-87
2022/08/09 13:14:07;;;;;;;3.15;1.30;;;31.10;49.00;;;;;;5120730;28;20054;-87
2022/08/09 13:16:44;;;;;;;4.95;1.55;;;31.10;49.30;;;;;;5120096;28;20066;-88
2022/08/09 13:19:11;;;;;;;3.08;1.70;;;31.00;49.70;;;;;;5120206;28;20051;-87
2022/08/09 13:21:36;;;;;;;1.60;1.50;;;30.90;49.10;;;;;;5120320;28;20023;-88
2022/08/09 13:24:07;;;;;;;1.75;1.20;;;30.90;48.90;;;;;;5118622;28;20031;-87
2022/08/09 13:26:34;;;;;;;1.73;1.40;;;31.00;49.00;;;;;;5124632;27;20437;-87
2022/08/09 13:29:11;;;;;;;3.60;1.63;;;31.30;48.50;;;;;;5134366;27;20196;-88
2022/08/09 13:31:59;;;;;;;2.78;1.45;;;31.70;47.90;;;;;;5139595;27;20488;-76
2022/08/09 13:34:36;;;;;;;3.33;1.42;;;32.00;47.10;;;;;;5137658;27;20027;-80